Time,TemperatureF,DewpointF,PressureIn,WindDirection,WindDirectionDegrees,WindSpeedMPH,WindSpeedGustMPH,Humidity,HourlyPrecipIn,Conditions,Clouds,dailyrainin,SoftwareType,DateUTC
2013-03-02 00:00:00,50.0,47.8,30.34,ESE,104,1.0,1.0,92,0.00,,,0.00,WeatherCatV1.10B1784,2013-03-02 08:00:00,
2013-03-02 00:05:00,50.0,47.8,30.34,ESE,102,0.0,1.0,92,0.00,,,0.00,WeatherCatV1.10B1784,2013-03-02 08:05:00,
2013-03-02 00:10:00,50.3,48.1,30.34,ESE,102,0.0,1.0,92,0.00,,,0.00,WeatherCatV1.10B1784,2013-03-02 08:10:00,
2013-03-02 00:15:00,50.2,47.7,30.34,ESE,102,1.0,1.0,91,0.00,,,0.00,WeatherCatV1.10B1784,2013-03-02 08:15:00,
2013-03-02 00:20:00,50.0,47.8,30.34,East,91,2.0,2.0,92,0.00,,,0.00,WeatherCatV1.10B1784,2013-03-02 08:20:00,
2013-03-02 00:25:00,49.9,47.7,30.34,ENE,76,0.0,2.0,92,0.00,,,0.00,WeatherCatV1.10B1784,2013-03-02 08:25:00,
2013-03-02 00:30:00,49.8,47.6,30.34,East,83,1.0,2.0,92,0.00,,,0.00,WeatherCatV1.10B1784,2013-03-02 08:30:00,
2013-03-02 00:35:00,49.8,47.6,30.34,ENE,64,1.0,2.0,92,0.00,,,0.00,WeatherCatV1.10B1784,2013-03-02 08:35:00,
2013-03-02 00:40:00,49.8,47.6,30.34,East,79,1.0,3.0,92,0.00,,,0.00,WeatherCatV1.10B1784,2013-03-02 08:40:00,
2013-03-02 00:45:00,49.8,47.6,30.34,East,92,1.0,2.0,92,0.00,,,0.00,WeatherCatV1.10B1784,2013-03-02 08:45:00,
2013-03-02 00:50:00,49.9,47.7,30.34,East,89,1.0,1.0,92,0.00,,,0.00,WeatherCatV1.10B1784,2013-03-02 08:50:00,
2013-03-02 00:55:00,49.9,47.7,30.34,ESE,102,1.0,2.0,92,0.00,,,0.00,WeatherCatV1.10B1784,2013-03-02 08:55:00,
2013-03-02 01:00:00,49.7,47.5,30.34,ESE,105,1.0,2.0,92,0.00,,,0.00,WeatherCatV1.10B1784,2013-03-02 09:00:00,
2013-03-02 01:05:00,49.8,47.6,30.34,East,99,2.0,2.0,92,0.00,,,0.00,WeatherCatV1.10B1784,2013-03-02 09:05:00,
2013-03-02 01:10:00,49.9,47.7,30.34,East,89,3.0,3.0,92,0.00,,,0.00,WeatherCatV1.10B1784,2013-03-02 09:10:00,
2013-03-02 01:15:00,49.8,47.6,30.33,East,97,1.0,3.0,92,0.00,,,0.00,WeatherCatV1.10B1784,2013-03-02 09:15:00,
2013-03-02 01:20:00,49.8,47.6,30.33,ENE,78,5.0,5.0,92,0.00,,,0.00,WeatherCatV1.10B1784,2013-03-02 09:20:00,
2013-03-02 01:25:00,49.7,47.5,30.33,SE,128,1.0,3.0,92,0.00,,,0.00,WeatherCatV1.10B1784,2013-03-02 09:25:00,
2013-03-02 01:30:00,49.7,47.5,30.33,ENE,77,1.0,2.0,92,0.00,,,0.00,WeatherCatV1.10B1784,2013-03-02 09:30:00,
2013-03-02 01:35:00,49.6,47.4,30.34,ESE,121,3.0,4.0,92,0.00,,,0.00,WeatherCatV1.10B1784,2013-03-02 09:35:00,
2013-03-02 01:40:00,49.6,47.4,30.34,ENE,58,1.0,2.0,92,0.00,,,0.00,WeatherCatV1.10B1784,2013-03-02 09:40:00,
2013-03-02 01:45:00,49.6,47.1,30.34,East,101,1.0,2.0,91,0.00,,,0.00,WeatherCatV1.10B1784,2013-03-02 09:45:00,
2013-03-02 01:50:00,49.6,47.1,30.33,East,97,1.0,3.0,91,0.00,,,0.00,WeatherCatV1.10B1784,2013-03-02 09:50:00,
2013-03-02 01:55:00,49.5,47.0,30.33,East,81,3.0,5.0,91,0.00,,,0.00,WeatherCatV1.10B1784,2013-03-02 09:55:00,
2013-03-02 02:00:00,49.5,47.0,30.33,ENE,57,4.0,4.0,91,0.00,,,0.00,WeatherCatV1.10B1784,2013-03-02 10:00:00,
2013-03-02 02:05:00,49.5,47.0,30.33,East,92,3.0,5.0,91,0.00,,,0.00,WeatherCatV1.10B1784,2013-03-02 10:05:00,
2013-03-02 02:07:00,49.5,46.7,30.33,ESE,112,2.0,4.0,90,0.00,,,0.00,WeatherCatV1.10B1784,2013-03-02 10:07:00,
2013-03-02 02:12:00,49.4,46.6,30.33,ESE,107,1.0,3.0,90,0.00,,,0.00,WeatherCatV1.10B1784,2013-03-02 10:12:00,
2013-03-02 02:17:00,49.3,46.5,30.33,ESE,104,3.0,3.0,90,0.00,,,0.00,WeatherCatV1.10B1784,2013-03-02 10:17:00,
2013-03-02 02:22:00,49.1,46.3,30.32,East,91,4.0,4.0,90,0.00,,,0.00,WeatherCatV1.10B1784,2013-03-02 10:22:00,
2013-03-02 02:27:00,49.0,46.2,30.32,SE,146,2.0,3.0,90,0.00,,,0.00,WeatherCatV1.10B1784,2013-03-02 10:27:00,
2013-03-02 02:32:00,48.8,46.0,30.32,ESE,118,2.0,2.0,90,0.00,,,0.00,WeatherCatV1.10B1784,2013-03-02 10:32:00,
2013-03-02 02:37:00,48.8,46.0,30.32,ESE,114,3.0,4.0,90,0.00,,,0.00,WeatherCatV1.10B1784,2013-03-02 10:37:00,
2013-03-02 02:42:00,48.7,45.9,30.32,East,96,2.0,5.0,90,0.00,,,0.00,WeatherCatV1.10B1784,2013-03-02 10:42:00,
2013-03-02 02:47:00,48.6,45.8,30.32,ENE,76,0.0,2.0,90,0.00,,,0.00,WeatherCatV1.10B1784,2013-03-02 10:47:00,
2013-03-02 02:52:00,48.6,45.8,30.32,South,188,1.0,5.0,90,0.00,,,0.00,WeatherCatV1.10B1784,2013-03-02 10:52:00,
2013-03-02 02:57:00,48.6,45.5,30.31,East,91,6.0,6.0,89,0.00,,,0.00,WeatherCatV1.10B1784,2013-03-02 10:57:00,
2013-03-02 03:02:00,48.5,45.4,30.31,East,89,4.0,5.0,89,0.00,,,0.00,WeatherCatV1.10B1784,2013-03-02 11:02:00,
2013-03-02 03:07:00,48.5,45.4,30.30,East,80,4.0,4.0,89,0.00,,,0.00,WeatherCatV1.10B1784,2013-03-02 11:07:00,
2013-03-02 03:12:00,48.4,45.3,30.30,East,83,4.0,4.0,89,0.00,,,0.00,WeatherCatV1.10B1784,2013-03-02 11:12:00,
2013-03-02 03:17:00,48.3,45.2,30.30,ENE,69,3.0,3.0,89,0.00,,,0.00,WeatherCatV1.10B1784,2013-03-02 11:17:00,
2013-03-02 03:22:00,48.2,45.1,30.30,NE,56,2.0,2.0,89,0.00,,,0.00,WeatherCatV1.10B1784,2013-03-02 11:22:00,
2013-03-02 03:27:00,48.2,45.1,30.30,ESE,110,1.0,4.0,89,0.00,,,0.00,WeatherCatV1.10B1784,2013-03-02 11:27:00,
2013-03-02 03:32:00,48.3,45.2,30.29,ENE,74,2.0,5.0,89,0.00,,,0.00,WeatherCatV1.10B1784,2013-03-02 11:32:00,
2013-03-02 03:37:00,48.2,45.1,30.29,SE,143,1.0,4.0,89,0.00,,,0.00,WeatherCatV1.10B1784,2013-03-02 11:37:00,
2013-03-02 03:42:00,48.2,45.1,30.29,ESE,103,2.0,2.0,89,0.00,,,0.00,WeatherCatV1.10B1784,2013-03-02 11:42:00,
2013-03-02 03:47:00,48.2,45.1,30.28,East,83,3.0,4.0,89,0.00,,,0.00,WeatherCatV1.10B1784,2013-03-02 11:47:00,
2013-03-02 03:52:00,48.1,45.0,30.28,ENE,57,0.0,2.0,89,0.00,,,0.00,WeatherCatV1.10B1784,2013-03-02 11:52:00,
2013-03-02 03:57:00,48.0,44.9,30.28,East,82,0.0,2.0,89,0.00,,,0.00,WeatherCatV1.10B1784,2013-03-02 11:57:00,
2013-03-02 04:02:00,48.0,44.9,30.28,ESE,108,1.0,3.0,89,0.00,,,0.00,WeatherCatV1.10B1784,2013-03-02 12:02:00,
2013-03-02 04:07:00,48.0,44.9,30.28,East,79,1.0,3.0,89,0.00,,,0.00,WeatherCatV1.10B1784,2013-03-02 12:07:00,
2013-03-02 04:12:00,48.0,44.9,30.28,ENE,59,0.0,2.0,89,0.00,,,0.00,WeatherCatV1.10B1784,2013-03-02 12:12:00,
2013-03-02 04:17:00,48.0,44.6,30.28,East,80,1.0,2.0,88,0.00,,,0.00,WeatherCatV1.10B1784,2013-03-02 12:17:00,
2013-03-02 04:22:00,48.0,44.6,30.28,East,85,1.0,2.0,88,0.00,,,0.00,WeatherCatV1.10B1784,2013-03-02 12:22:00,
2013-03-02 04:27:00,47.9,44.5,30.27,ENE,64,1.0,2.0,88,0.00,,,0.00,WeatherCatV1.10B1784,2013-03-02 12:27:00,
2013-03-02 04:32:00,47.8,44.4,30.27,ENE,76,1.0,2.0,88,0.00,,,0.00,WeatherCatV1.10B1784,2013-03-02 12:32:00,
2013-03-02 04:37:00,47.7,44.3,30.27,ENE,67,2.0,3.0,88,0.00,,,0.00,WeatherCatV1.10B1784,2013-03-02 12:37:00,
2013-03-02 04:42:00,47.6,44.2,30.27,ESE,111,2.0,3.0,88,0.00,,,0.00,WeatherCatV1.10B1784,2013-03-02 12:42:00,
2013-03-02 04:47:00,47.5,44.4,30.27,ENE,69,3.0,3.0,89,0.00,,,0.00,WeatherCatV1.10B1784,2013-03-02 12:47:00,
2013-03-02 04:52:00,47.4,44.3,30.27,ENE,70,3.0,5.0,89,0.00,,,0.00,WeatherCatV1.10B1784,2013-03-02 12:52:00,
2013-03-02 04:57:00,47.4,44.3,30.27,East,97,4.0,4.0,89,0.00,,,0.00,WeatherCatV1.10B1784,2013-03-02 12:57:00,
2013-03-02 05:02:00,47.3,44.2,30.27,East,84,1.0,3.0,89,0.00,,,0.00,WeatherCatV1.10B1784,2013-03-02 13:02:00,
2013-03-02 05:07:00,46.7,43.3,30.27,ENE,63,1.0,1.0,88,0.00,,,0.00,WeatherCatV1.10B1784,2013-03-02 13:07:00,
2013-03-02 05:12:00,46.7,43.3,30.27,ENE,63,1.0,1.0,88,0.00,,,0.00,WeatherCatV1.10B1784,2013-03-02 13:12:00,
2013-03-02 05:17:00,-999.0,-99.9,30.27,North,-999,-999.0,0.0,-999,0.00,,,0.00,WeatherCatV1.10B1784,2013-03-02 13:17:00,
2013-03-02 05:22:00,-999.0,-99.9,30.26,North,-999,-999.0,0.0,-999,0.00,,,0.00,WeatherCatV1.10B1784,2013-03-02 13:22:00,
2013-03-02 05:27:00,-999.0,-99.9,30.26,North,-999,-999.0,0.0,-999,0.00,,,0.00,WeatherCatV1.10B1784,2013-03-02 13:27:00,
2013-03-02 05:32:00,-999.0,-99.9,30.26,North,-999,-999.0,0.0,-999,0.00,,,0.00,WeatherCatV1.10B1784,2013-03-02 13:32:00,
2013-03-02 05:37:00,-999.0,-99.9,30.26,North,-999,-999.0,0.0,-999,0.00,,,0.00,WeatherCatV1.10B1784,2013-03-02 13:37:00,
2013-03-02 05:42:00,-999.0,-99.9,30.26,North,-999,-999.0,0.0,-999,0.00,,,0.00,WeatherCatV1.10B1784,2013-03-02 13:42:00,
2013-03-02 05:47:00,-999.0,-99.9,30.26,North,-999,-999.0,0.0,-999,0.00,,,0.00,WeatherCatV1.10B1784,2013-03-02 13:47:00,
2013-03-02 05:52:00,-999.0,-99.9,30.26,North,-999,-999.0,0.0,-999,0.00,,,0.00,WeatherCatV1.10B1784,2013-03-02 13:52:00,
2013-03-02 05:57:00,-999.0,-99.9,30.26,North,-999,-999.0,0.0,-999,0.00,,,0.00,WeatherCatV1.10B1784,2013-03-02 13:57:00,
2013-03-02 06:02:00,-999.0,-99.9,30.26,North,-999,-999.0,0.0,-999,0.00,,,0.00,WeatherCatV1.10B1784,2013-03-02 14:02:00,
2013-03-02 06:07:00,-999.0,-99.9,30.26,North,-999,-999.0,0.0,-999,0.00,,,0.00,WeatherCatV1.10B1784,2013-03-02 14:07:00,
2013-03-02 06:12:00,-999.0,-99.9,30.26,North,-999,-999.0,0.0,-999,0.00,,,0.00,WeatherCatV1.10B1784,2013-03-02 14:12:00,
2013-03-02 06:17:00,-999.0,-99.9,30.26,North,-999,-999.0,0.0,-999,0.00,,,0.00,WeatherCatV1.10B1784,2013-03-02 14:17:00,
2013-03-02 06:22:00,-999.0,-99.9,30.26,North,-999,-999.0,0.0,-999,0.00,,,0.00,WeatherCatV1.10B1784,2013-03-02 14:22:00,
2013-03-02 06:27:00,-999.0,-99.9,30.26,North,-999,-999.0,0.0,-999,0.00,,,0.00,WeatherCatV1.10B1784,2013-03-02 14:27:00,
2013-03-02 06:32:00,-999.0,-99.9,30.26,North,-999,-999.0,0.0,-999,0.00,,,0.00,WeatherCatV1.10B1784,2013-03-02 14:32:00,
2013-03-02 06:37:00,-999.0,-99.9,30.26,North,-999,-999.0,0.0,-999,0.00,,,0.00,WeatherCatV1.10B1784,2013-03-02 14:37:00,
2013-03-02 06:42:00,-999.0,-99.9,30.26,North,-999,-999.0,0.0,-999,0.00,,,0.00,WeatherCatV1.10B1784,2013-03-02 14:42:00,
2013-03-02 06:47:00,-999.0,-99.9,30.25,North,-999,-999.0,0.0,-999,0.00,,,0.00,WeatherCatV1.10B1784,2013-03-02 14:47:00,
2013-03-02 06:52:00,-999.0,-99.9,30.25,North,-999,-999.0,0.0,-999,0.00,,,0.00,WeatherCatV1.10B1784,2013-03-02 14:52:00,
2013-03-02 06:57:00,-999.0,-99.9,30.25,North,-999,-999.0,0.0,-999,0.00,,,0.00,WeatherCatV1.10B1784,2013-03-02 14:57:00,
2013-03-02 07:02:00,-999.0,-99.9,30.25,North,-999,-999.0,0.0,-999,0.00,,,0.00,WeatherCatV1.10B1784,2013-03-02 15:02:00,
2013-03-02 07:07:00,-999.0,-99.9,30.25,North,-999,-999.0,0.0,-999,0.00,,,0.00,WeatherCatV1.10B1784,2013-03-02 15:07:00,
2013-03-02 07:12:00,-999.0,-99.9,30.25,North,-999,-999.0,0.0,-999,0.00,,,0.00,WeatherCatV1.10B1784,2013-03-02 15:12:00,
2013-03-02 07:17:00,-999.0,-99.9,30.25,North,-999,-999.0,0.0,-999,0.00,,,0.00,WeatherCatV1.10B1784,2013-03-02 15:17:00,
2013-03-02 07:22:00,-999.0,-99.9,30.24,North,-999,-999.0,0.0,-999,0.00,,,0.00,WeatherCatV1.10B1784,2013-03-02 15:22:00,
2013-03-02 07:27:00,-999.0,-99.9,30.24,North,-999,-999.0,0.0,-999,0.00,,,0.00,WeatherCatV1.10B1784,2013-03-02 15:27:00,
2013-03-02 07:32:00,-999.0,-99.9,30.24,North,-999,-999.0,0.0,-999,0.00,,,0.00,WeatherCatV1.10B1784,2013-03-02 15:32:00,
2013-03-02 07:37:00,47.1,43.4,30.24,East,98,2.0,4.0,87,0.00,,,0.00,WeatherCatV1.10B1784,2013-03-02 15:37:00,
2013-03-02 07:42:00,47.1,43.4,30.24,East,101,2.0,3.0,87,0.00,,,0.00,WeatherCatV1.10B1784,2013-03-02 15:42:00,
2013-03-02 07:47:00,47.1,43.4,30.24,ENE,72,2.0,2.0,87,0.00,,,0.00,WeatherCatV1.10B1784,2013-03-02 15:47:00,
2013-03-02 07:52:00,47.2,43.5,30.24,NE,56,3.0,4.0,87,0.00,,,0.00,WeatherCatV1.10B1784,2013-03-02 15:52:00,
2013-03-02 07:57:00,47.3,43.6,30.24,ESE,102,2.0,2.0,87,0.00,,,0.00,WeatherCatV1.10B1784,2013-03-02 15:57:00,
2013-03-02 08:02:00,47.4,43.7,30.23,NE,56,2.0,3.0,87,0.00,,,0.00,WeatherCatV1.10B1784,2013-03-02 16:02:00,
2013-03-02 08:07:00,47.5,43.8,30.23,East,97,0.0,2.0,87,0.00,,,0.00,WeatherCatV1.10B1784,2013-03-02 16:07:00,
2013-03-02 08:12:00,47.7,43.7,30.23,East,80,1.0,3.0,86,0.00,,,0.00,WeatherCatV1.10B1784,2013-03-02 16:12:00,
2013-03-02 08:17:00,47.9,43.9,30.22,East,95,1.0,3.0,86,0.00,,,0.00,WeatherCatV1.10B1784,2013-03-02 16:17:00,
2013-03-02 08:22:00,48.1,44.1,30.22,NE,55,2.0,2.0,86,0.00,,,0.00,WeatherCatV1.10B1784,2013-03-02 16:22:00,
2013-03-02 08:27:00,48.3,44.3,30.22,SE,124,1.0,1.0,86,0.00,,,0.00,WeatherCatV1.10B1784,2013-03-02 16:27:00,
2013-03-02 08:32:00,48.5,44.5,30.22,East,97,1.0,1.0,86,0.00,,,0.00,WeatherCatV1.10B1784,2013-03-02 16:32:00,
2013-03-02 08:37:00,48.9,44.6,30.22,ESE,108,1.0,2.0,85,0.00,,,0.00,WeatherCatV1.10B1784,2013-03-02 16:37:00,
2013-03-02 08:42:00,49.3,45.0,30.22,SE,132,3.0,4.0,85,0.00,,,0.00,WeatherCatV1.10B1784,2013-03-02 16:42:00,
2013-03-02 08:47:00,49.7,45.1,30.22,SE,141,1.0,2.0,84,0.00,,,0.00,WeatherCatV1.10B1784,2013-03-02 16:47:00,
2013-03-02 08:52:00,50.2,45.6,30.22,South,184,2.0,3.0,84,0.00,,,0.00,WeatherCatV1.10B1784,2013-03-02 16:52:00,
2013-03-02 08:57:00,50.5,45.5,30.22,SE,146,2.0,4.0,83,0.00,,,0.00,WeatherCatV1.10B1784,2013-03-02 16:57:00,
2013-03-02 09:02:00,50.6,45.3,30.22,SSE,157,3.0,7.0,82,0.00,,,0.00,WeatherCatV1.10B1784,2013-03-02 17:02:00,
2013-03-02 09:07:00,50.7,45.4,30.23,SE,142,3.0,4.0,82,0.00,,,0.00,WeatherCatV1.10B1784,2013-03-02 17:07:00,
2013-03-02 09:12:00,50.8,45.2,30.22,South,169,3.0,6.0,81,0.00,,,0.00,WeatherCatV1.10B1784,2013-03-02 17:12:00,
2013-03-02 09:17:00,50.8,45.2,30.22,SE,131,4.0,9.0,81,0.00,,,0.00,WeatherCatV1.10B1784,2013-03-02 17:17:00,
2013-03-02 09:22:00,50.8,45.5,30.22,SE,145,3.0,5.0,82,0.00,,,0.00,WeatherCatV1.10B1784,2013-03-02 17:22:00,
2013-03-02 09:27:00,50.9,45.6,30.22,SE,127,4.0,9.0,82,0.00,,,0.00,WeatherCatV1.10B1784,2013-03-02 17:27:00,
2013-03-02 09:32:00,51.2,45.9,30.22,SSE,156,5.0,5.0,82,0.00,,,0.00,WeatherCatV1.10B1784,2013-03-02 17:32:00,
2013-03-02 09:37:00,51.4,45.8,30.22,SE,128,1.0,6.0,81,0.00,,,0.00,WeatherCatV1.10B1784,2013-03-02 17:37:00,
2013-03-02 09:42:00,51.6,46.0,30.22,SSE,157,5.0,6.0,81,0.00,,,0.00,WeatherCatV1.10B1784,2013-03-02 17:42:00,
2013-03-02 09:47:00,51.7,46.1,30.22,South,187,6.0,8.0,81,0.00,,,0.00,WeatherCatV1.10B1784,2013-03-02 17:47:00,
2013-03-02 09:52:00,51.8,46.2,30.22,South,170,7.0,10.0,81,0.00,,,0.00,WeatherCatV1.10B1784,2013-03-02 17:52:00,
2013-03-02 09:57:00,51.9,45.9,30.22,SE,136,5.0,7.0,80,0.00,,,0.00,WeatherCatV1.10B1784,2013-03-02 17:57:00,
2013-03-02 10:02:00,52.0,46.4,30.22,SSE,162,6.0,8.0,81,0.00,,,0.00,WeatherCatV1.10B1784,2013-03-02 18:02:00,
2013-03-02 10:07:00,52.0,46.0,30.21,South,187,7.0,8.0,80,0.00,,,0.00,WeatherCatV1.10B1784,2013-03-02 18:07:00,
2013-03-02 10:12:00,52.1,46.4,30.21,SSE,158,5.0,7.0,81,0.00,,,0.00,WeatherCatV1.10B1784,2013-03-02 18:12:00,
2013-03-02 10:17:00,52.3,46.3,30.20,South,186,4.0,7.0,80,0.00,,,0.00,WeatherCatV1.10B1784,2013-03-02 18:17:00,
2013-03-02 10:22:00,52.4,46.4,30.20,SSE,153,5.0,10.0,80,0.00,,,0.00,WeatherCatV1.10B1784,2013-03-02 18:22:00,
2013-03-02 10:27:00,52.6,46.6,30.20,SSE,163,6.0,9.0,80,0.00,,,0.00,WeatherCatV1.10B1784,2013-03-02 18:27:00,
2013-03-02 10:32:00,52.7,46.7,30.20,South,172,2.0,9.0,80,0.00,,,0.00,WeatherCatV1.10B1784,2013-03-02 18:32:00,
2013-03-02 10:37:00,53.0,47.0,30.20,South,181,6.0,9.0,80,0.00,,,0.00,WeatherCatV1.10B1784,2013-03-02 18:37:00,
2013-03-02 10:42:00,53.0,47.0,30.20,SE,141,5.0,9.0,80,0.00,,,0.00,WeatherCatV1.10B1784,2013-03-02 18:42:00,
2013-03-02 10:47:00,53.2,47.2,30.20,SSW,201,5.0,7.0,80,0.00,,,0.00,WeatherCatV1.10B1784,2013-03-02 18:47:00,
2013-03-02 10:52:00,53.3,47.3,30.19,SSW,205,7.0,12.0,80,0.00,,,0.00,WeatherCatV1.10B1784,2013-03-02 18:52:00,
2013-03-02 10:57:00,53.4,47.4,30.20,SSE,163,9.0,11.0,80,0.00,,,0.00,WeatherCatV1.10B1784,2013-03-02 18:57:00,
2013-03-02 11:02:00,53.5,47.1,30.19,South,176,5.0,10.0,79,0.00,,,0.00,WeatherCatV1.10B1784,2013-03-02 19:02:00,
2013-03-02 11:07:00,53.5,47.1,30.19,SW,229,2.0,10.0,79,0.00,,,0.00,WeatherCatV1.10B1784,2013-03-02 19:07:00,
2013-03-02 11:12:00,53.4,47.1,30.19,SSW,211,7.0,7.0,79,0.00,,,0.00,WeatherCatV1.10B1784,2013-03-02 19:12:00,
2013-03-02 11:17:00,53.4,47.1,30.19,South,179,6.0,11.0,79,0.00,,,0.00,WeatherCatV1.10B1784,2013-03-02 19:17:00,
2013-03-02 11:22:00,53.4,47.4,30.19,SSW,211,5.0,6.0,80,0.00,,,0.00,WeatherCatV1.10B1784,2013-03-02 19:22:00,
2013-03-02 11:27:00,53.6,47.2,30.19,South,184,8.0,8.0,79,0.00,,,0.00,WeatherCatV1.10B1784,2013-03-02 19:27:00,
2013-03-02 11:32:00,53.7,47.3,30.19,SSW,204,7.0,9.0,79,0.00,,,0.00,WeatherCatV1.10B1784,2013-03-02 19:32:00,
2013-03-02 11:37:00,53.8,47.4,30.19,SSW,194,7.0,11.0,79,0.00,,,0.00,WeatherCatV1.10B1784,2013-03-02 19:37:00,
2013-03-02 11:42:00,53.9,47.2,30.19,South,187,7.0,13.0,78,0.00,,,0.00,WeatherCatV1.10B1784,2013-03-02 19:42:00,
2013-03-02 11:47:00,54.1,47.4,30.18,SW,217,13.0,13.0,78,0.00,,,0.00,WeatherCatV1.10B1784,2013-03-02 19:47:00,
2013-03-02 11:52:00,54.2,47.5,30.18,SSE,160,4.0,11.0,78,0.00,,,0.00,WeatherCatV1.10B1784,2013-03-02 19:52:00,
2013-03-02 11:57:00,54.2,47.5,30.18,SSW,205,12.0,15.0,78,0.00,,,0.00,WeatherCatV1.10B1784,2013-03-02 19:57:00,
2013-03-02 12:02:00,54.1,47.4,30.18,SSW,201,5.0,13.0,78,0.00,,,0.00,WeatherCatV1.10B1784,2013-03-02 20:02:00,
2013-03-02 12:07:00,54.2,47.1,30.17,SSW,205,7.0,11.0,77,0.00,,,0.00,WeatherCatV1.10B1784,2013-03-02 20:07:00,
2013-03-02 12:12:00,54.3,47.6,30.17,SSW,208,8.0,13.0,78,0.00,,,0.00,WeatherCatV1.10B1784,2013-03-02 20:12:00,
2013-03-02 12:17:00,54.2,47.1,30.17,WNW,285,7.0,16.0,77,0.00,,,0.00,WeatherCatV1.10B1784,2013-03-02 20:17:00,
2013-03-02 12:22:00,54.1,47.0,30.17,West,271,5.0,18.0,77,0.00,,,0.00,WeatherCatV1.10B1784,2013-03-02 20:22:00,
2013-03-02 12:27:00,54.1,47.0,30.17,SSE,148,11.0,21.0,77,0.00,,,0.00,WeatherCatV1.10B1784,2013-03-02 20:27:00,
2013-03-02 12:32:00,54.0,47.0,30.17,SSE,168,3.0,16.0,77,0.00,,,0.00,WeatherCatV1.10B1784,2013-03-02 20:32:00,
2013-03-02 12:37:00,54.1,47.0,30.17,SW,221,12.0,12.0,77,0.00,,,0.00,WeatherCatV1.10B1784,2013-03-02 20:37:00,
2013-03-02 12:42:00,54.2,46.8,30.17,SE,143,13.0,13.0,76,0.00,,,0.00,WeatherCatV1.10B1784,2013-03-02 20:42:00,
2013-03-02 12:47:00,54.2,47.1,30.17,SSE,162,10.0,13.0,77,0.00,,,0.00,WeatherCatV1.10B1784,2013-03-02 20:47:00,
2013-03-02 12:52:00,54.3,46.9,30.16,South,181,10.0,16.0,76,0.00,,,0.00,WeatherCatV1.10B1784,2013-03-02 20:52:00,
2013-03-02 12:57:00,54.3,46.9,30.16,SSW,195,10.0,16.0,76,0.00,,,0.00,WeatherCatV1.10B1784,2013-03-02 20:57:00,
2013-03-02 13:02:00,54.5,47.4,30.16,South,169,4.0,11.0,77,0.00,,,0.00,WeatherCatV1.10B1784,2013-03-02 21:02:00,
2013-03-02 13:07:00,54.7,46.9,30.16,SSE,154,7.0,15.0,75,0.00,,,0.00,WeatherCatV1.10B1784,2013-03-02 21:07:00,
2013-03-02 13:12:00,54.8,46.7,30.15,SSE,148,8.0,20.0,74,0.00,,,0.00,WeatherCatV1.10B1784,2013-03-02 21:12:00,
2013-03-02 13:17:00,55.0,47.2,30.15,SW,235,7.0,17.0,75,0.00,,,0.00,WeatherCatV1.10B1784,2013-03-02 21:17:00,
2013-03-02 13:22:00,55.0,46.9,30.15,WSW,243,11.0,12.0,74,0.00,,,0.00,WeatherCatV1.10B1784,2013-03-02 21:22:00,
2013-03-02 13:27:00,55.1,47.0,30.15,WSW,256,14.0,14.0,74,0.00,,,0.00,WeatherCatV1.10B1784,2013-03-02 21:27:00,
2013-03-02 13:32:00,55.1,47.0,30.15,South,186,11.0,17.0,74,0.00,,,0.00,WeatherCatV1.10B1784,2013-03-02 21:32:00,
2013-03-02 13:37:00,54.9,46.4,30.15,SSE,165,13.0,18.0,73,0.00,,,0.00,WeatherCatV1.10B1784,2013-03-02 21:37:00,
2013-03-02 13:42:00,54.9,46.4,30.15,SSW,212,10.0,16.0,73,0.00,,,0.00,WeatherCatV1.10B1784,2013-03-02 21:42:00,
2013-03-02 13:47:00,54.8,46.3,30.15,SW,225,12.0,17.0,73,0.00,,,0.00,WeatherCatV1.10B1784,2013-03-02 21:47:00,
2013-03-02 13:52:00,54.6,46.5,30.15,WSW,251,14.0,14.0,74,0.00,,,0.00,WeatherCatV1.10B1784,2013-03-02 21:52:00,
2013-03-02 13:57:00,54.6,46.1,30.14,SSW,200,9.0,18.0,73,0.00,,,0.00,WeatherCatV1.10B1784,2013-03-02 21:57:00,
2013-03-02 14:02:00,54.5,46.4,30.14,SW,236,13.0,14.0,74,0.00,,,0.00,WeatherCatV1.10B1784,2013-03-02 22:02:00,
2013-03-02 14:07:00,54.5,46.4,30.14,SSW,204,7.0,8.0,74,0.00,,,0.00,WeatherCatV1.10B1784,2013-03-02 22:07:00,
2013-03-02 14:12:00,54.4,46.6,30.14,SW,225,5.0,9.0,75,0.00,,,0.00,WeatherCatV1.10B1784,2013-03-02 22:12:00,
2013-03-02 14:17:00,54.3,46.9,30.14,South,188,3.0,6.0,76,0.00,,,0.00,WeatherCatV1.10B1784,2013-03-02 22:17:00,
2013-03-02 14:22:00,54.2,47.1,30.14,SW,236,7.0,11.0,77,0.00,,,0.00,WeatherCatV1.10B1784,2013-03-02 22:22:00,
2013-03-02 14:27:00,54.1,46.7,30.13,South,189,8.0,18.0,76,0.00,,,0.00,WeatherCatV1.10B1784,2013-03-02 22:27:00,
2013-03-02 14:32:00,54.0,47.0,30.13,SSW,213,9.0,9.0,77,0.00,,,0.00,WeatherCatV1.10B1784,2013-03-02 22:32:00,
2013-03-02 14:37:00,53.9,46.9,30.13,SSE,153,6.0,10.0,77,0.00,,,0.00,WeatherCatV1.10B1784,2013-03-02 22:37:00,
2013-03-02 14:42:00,53.8,46.8,30.13,South,175,14.0,15.0,77,0.00,,,0.00,WeatherCatV1.10B1784,2013-03-02 22:42:00,
2013-03-02 14:47:00,53.7,47.0,30.13,SW,229,5.0,12.0,78,0.00,,,0.00,WeatherCatV1.10B1784,2013-03-02 22:47:00,
2013-03-02 14:52:00,53.6,47.2,30.13,SSE,162,8.0,12.0,79,0.00,,,0.00,WeatherCatV1.10B1784,2013-03-02 22:52:00,
2013-03-02 14:57:00,53.3,47.0,30.13,WSW,256,7.0,9.0,79,0.00,,,0.00,WeatherCatV1.10B1784,2013-03-02 22:57:00,
2013-03-02 15:02:00,53.3,47.0,30.13,SSW,205,12.0,13.0,79,0.00,,,0.00,WeatherCatV1.10B1784,2013-03-02 23:02:00,
2013-03-02 15:07:00,53.3,46.6,30.14,WSW,255,10.0,19.0,78,0.00,,,0.00,WeatherCatV1.10B1784,2013-03-02 23:07:00,
2013-03-02 15:12:00,52.7,47.4,30.13,WSW,239,9.0,12.0,82,0.00,,,0.00,WeatherCatV1.10B1784,2013-03-02 23:12:00,
2013-03-02 15:17:00,52.4,47.4,30.13,WSW,249,17.0,18.0,83,0.00,,,0.00,WeatherCatV1.10B1784,2013-03-02 23:17:00,
2013-03-02 15:22:00,52.1,47.4,30.13,South,181,11.0,11.0,84,0.00,,,0.00,WeatherCatV1.10B1784,2013-03-02 23:22:00,
2013-03-02 15:27:00,52.1,47.4,30.13,SW,234,10.0,12.0,84,0.00,,,0.00,WeatherCatV1.10B1784,2013-03-02 23:27:00,
2013-03-02 15:32:00,52.1,47.4,30.13,WNW,300,2.0,14.0,84,0.00,,,0.00,WeatherCatV1.10B1784,2013-03-02 23:32:00,
2013-03-02 15:37:00,52.0,47.6,30.13,SW,222,8.0,14.0,85,0.00,,,0.00,WeatherCatV1.10B1784,2013-03-02 23:37:00,
2013-03-02 15:42:00,52.0,47.9,30.13,WSW,246,6.0,11.0,86,0.00,,,0.00,WeatherCatV1.10B1784,2013-03-02 23:42:00,
2013-03-02 15:47:00,51.9,47.8,30.13,SW,222,9.0,9.0,86,0.00,,,0.00,WeatherCatV1.10B1784,2013-03-02 23:47:00,
2013-03-02 15:52:00,51.9,48.2,30.13,WSW,252,5.0,15.0,87,0.00,,,0.00,WeatherCatV1.10B1784,2013-03-02 23:52:00,
2013-03-02 15:57:00,51.7,48.0,30.12,SSE,165,11.0,13.0,87,0.00,,,0.00,WeatherCatV1.10B1784,2013-03-02 23:57:00,
2013-03-02 16:02:00,51.6,47.9,30.12,South,173,11.0,15.0,87,0.00,,,0.00,WeatherCatV1.10B1784,2013-03-03 00:02:00,
2013-03-02 16:07:00,51.5,47.8,30.12,SSW,205,11.0,12.0,87,0.00,,,0.00,WeatherCatV1.10B1784,2013-03-03 00:07:00,
2013-03-02 16:12:00,51.5,47.8,30.13,SSE,149,13.0,16.0,87,0.00,,,0.00,WeatherCatV1.10B1784,2013-03-03 00:12:00,
2013-03-02 16:17:00,51.4,48.0,30.12,South,174,8.0,10.0,88,0.00,,,0.00,WeatherCatV1.10B1784,2013-03-03 00:17:00,
2013-03-02 16:22:00,51.2,47.8,30.13,SSW,208,10.0,16.0,88,0.00,,,0.00,WeatherCatV1.10B1784,2013-03-03 00:22:00,
2013-03-02 16:27:00,50.7,47.9,30.13,West,259,11.0,14.0,90,0.00,,,0.01,WeatherCatV1.10B1784,2013-03-03 00:27:00,
2013-03-02 16:32:00,49.7,46.9,30.14,West,276,10.0,24.0,90,0.00,,,0.01,WeatherCatV1.10B1784,2013-03-03 00:32:00,
2013-03-02 16:37:00,48.7,46.2,30.14,SSW,208,7.0,17.0,91,0.00,,,0.01,WeatherCatV1.10B1784,2013-03-03 00:37:00,
2013-03-02 16:42:00,48.3,46.1,30.13,WSW,246,11.0,13.0,92,0.00,,,0.01,WeatherCatV1.10B1784,2013-03-03 00:42:00,
2013-03-02 16:47:00,48.0,45.5,30.13,South,181,4.0,8.0,91,0.00,,,0.01,WeatherCatV1.10B1784,2013-03-03 00:47:00,
2013-03-02 16:52:00,47.8,45.3,30.13,SSW,193,4.0,7.0,91,0.00,,,0.01,WeatherCatV1.10B1784,2013-03-03 00:52:00,
2013-03-02 16:57:00,47.6,44.8,30.13,SSW,195,12.0,14.0,90,0.00,,,0.01,WeatherCatV1.10B1784,2013-03-03 00:57:00,
2013-03-02 17:02:00,47.4,44.6,30.14,WSW,249,20.0,22.0,90,0.00,,,0.01,WeatherCatV1.10B1784,2013-03-03 01:02:00,
2013-03-02 17:07:00,47.1,43.4,30.15,SW,218,10.0,14.0,87,0.00,,,0.01,WeatherCatV1.10B1784,2013-03-03 01:07:00,
2013-03-02 17:12:00,46.9,42.9,30.15,WSW,244,7.0,17.0,86,0.00,,,0.01,WeatherCatV1.10B1784,2013-03-03 01:12:00,
2013-03-02 17:17:00,46.7,42.7,30.15,SW,215,13.0,17.0,86,0.00,,,0.01,WeatherCatV1.10B1784,2013-03-03 01:17:00,
2013-03-02 17:22:00,46.5,42.8,30.16,SW,236,11.0,14.0,87,0.00,,,0.01,WeatherCatV1.10B1784,2013-03-03 01:22:00,
2013-03-02 17:27:00,46.3,42.9,30.16,West,271,2.0,11.0,88,0.00,,,0.01,WeatherCatV1.10B1784,2013-03-03 01:27:00,
2013-03-02 17:32:00,46.0,42.3,30.17,SSW,202,7.0,15.0,87,0.00,,,0.01,WeatherCatV1.10B1784,2013-03-03 01:32:00,
2013-03-02 17:37:00,45.9,42.5,30.17,SW,215,7.0,9.0,88,0.00,,,0.01,WeatherCatV1.10B1784,2013-03-03 01:37:00,
2013-03-02 17:42:00,45.7,42.4,30.18,West,259,8.0,8.0,88,0.00,,,0.01,WeatherCatV1.10B1784,2013-03-03 01:42:00,
2013-03-02 17:47:00,45.5,42.2,30.18,SW,236,16.0,16.0,88,0.00,,,0.02,WeatherCatV1.10B1784,2013-03-03 01:47:00,
2013-03-02 17:52:00,45.1,41.8,30.18,WSW,252,12.0,15.0,88,0.00,,,0.02,WeatherCatV1.10B1784,2013-03-03 01:52:00,
2013-03-02 17:57:00,44.8,42.0,30.18,SW,218,9.0,9.0,90,0.09,,,0.03,WeatherCatV1.10B1784,2013-03-03 01:57:00,
2013-03-02 18:02:00,44.5,42.0,30.18,SSW,211,12.0,15.0,91,0.06,,,0.03,WeatherCatV1.10B1784,2013-03-03 02:02:00,
2013-03-02 18:07:00,44.3,41.8,30.19,South,169,8.0,9.0,91,0.06,,,0.04,WeatherCatV1.10B1784,2013-03-03 02:07:00,
2013-03-02 18:12:00,44.2,41.7,30.19,SE,139,6.0,6.0,91,0.06,,,0.04,WeatherCatV1.10B1784,2013-03-03 02:12:00,
2013-03-02 18:17:00,43.9,40.9,30.20,ENE,62,3.0,12.0,89,0.05,,,0.05,WeatherCatV1.10B1784,2013-03-03 02:17:00,
2013-03-02 18:22:00,43.0,40.3,30.20,NE,49,6.0,8.0,90,0.05,,,0.05,WeatherCatV1.10B1784,2013-03-03 02:22:00,
2013-03-02 18:27:00,42.3,39.9,30.20,NNE,32,5.0,12.0,91,0.08,,,0.06,WeatherCatV1.10B1784,2013-03-03 02:27:00,
2013-03-02 18:32:00,41.6,39.2,30.19,NNE,16,4.0,8.0,91,0.07,,,0.06,WeatherCatV1.10B1784,2013-03-03 02:32:00,
2013-03-02 18:37:00,41.1,39.0,30.19,ENE,57,2.0,10.0,92,0.05,,,0.07,WeatherCatV1.10B1784,2013-03-03 02:37:00,
2013-03-02 18:42:00,40.7,38.3,30.20,NNE,23,6.0,15.0,91,0.05,,,0.07,WeatherCatV1.10B1784,2013-03-03 02:42:00,
2013-03-02 18:47:00,40.6,38.2,30.20,NE,50,11.0,12.0,91,0.05,,,0.07,WeatherCatV1.10B1784,2013-03-03 02:47:00,
2013-03-02 18:52:00,40.5,38.4,30.20,NE,54,11.0,12.0,92,0.04,,,0.07,WeatherCatV1.10B1784,2013-03-03 02:52:00,
2013-03-02 18:57:00,40.5,38.4,30.20,North,9,10.0,10.0,92,0.00,,,0.07,WeatherCatV1.10B1784,2013-03-03 02:57:00,
2013-03-02 19:02:00,40.6,38.5,30.20,NE,49,3.0,8.0,92,0.00,,,0.07,WeatherCatV1.10B1784,2013-03-03 03:02:00,
2013-03-02 19:07:00,40.7,38.6,30.21,NNE,27,3.0,10.0,92,0.00,,,0.07,WeatherCatV1.10B1784,2013-03-03 03:07:00,
2013-03-02 19:12:00,40.3,37.9,30.21,NNE,19,8.0,13.0,91,0.00,,,0.07,WeatherCatV1.10B1784,2013-03-03 03:12:00,
2013-03-02 19:17:00,39.9,37.5,30.21,NE,49,10.0,13.0,91,0.00,,,0.07,WeatherCatV1.10B1784,2013-03-03 03:17:00,
2013-03-02 19:22:00,39.7,37.6,30.21,ENE,70,8.0,13.0,92,0.00,,,0.07,WeatherCatV1.10B1784,2013-03-03 03:22:00,
2013-03-02 19:27:00,39.6,37.5,30.21,NNE,14,2.0,7.0,92,0.00,,,0.07,WeatherCatV1.10B1784,2013-03-03 03:27:00,
2013-03-02 19:32:00,39.4,37.5,30.21,NNE,17,5.0,9.0,93,0.00,,,0.08,WeatherCatV1.10B1784,2013-03-03 03:32:00,
2013-03-02 19:37:00,39.2,37.6,30.22,North,4,2.0,6.0,94,0.07,,,0.09,WeatherCatV1.10B1784,2013-03-03 03:37:00,
2013-03-02 19:42:00,39.1,37.5,30.22,WNW,287,0.0,7.0,94,0.07,,,0.09,WeatherCatV1.10B1784,2013-03-03 03:42:00,
2013-03-02 19:47:00,39.1,37.8,30.22,NW,312,3.0,3.0,95,0.06,,,0.09,WeatherCatV1.10B1784,2013-03-03 03:47:00,
2013-03-02 19:52:00,39.1,37.8,30.22,NE,34,3.0,3.0,95,0.06,,,0.10,WeatherCatV1.10B1784,2013-03-03 03:52:00,
2013-03-02 19:57:00,39.1,37.8,30.23,WSW,252,0.0,0.0,95,0.06,,,0.10,WeatherCatV1.10B1784,2013-03-03 03:57:00,
2013-03-02 20:02:00,39.2,37.9,30.23,ESE,115,2.0,5.0,95,0.04,,,0.10,WeatherCatV1.10B1784,2013-03-03 04:02:00,
2013-03-02 20:07:00,39.4,37.8,30.23,NE,34,5.0,7.0,94,0.04,,,0.11,WeatherCatV1.10B1784,2013-03-03 04:07:00,
2013-03-02 20:12:00,39.7,38.1,30.22,ENE,61,6.0,9.0,94,0.04,,,0.11,WeatherCatV1.10B1784,2013-03-03 04:12:00,
2013-03-02 20:17:00,39.8,38.2,30.22,NE,49,3.0,8.0,94,0.04,,,0.11,WeatherCatV1.10B1784,2013-03-03 04:17:00,
2013-03-02 20:22:00,39.8,38.2,30.23,ENE,61,4.0,6.0,94,0.00,,,0.11,WeatherCatV1.10B1784,2013-03-03 04:22:00,
2013-03-02 20:27:00,39.6,38.0,30.23,NE,43,1.0,6.0,94,0.00,,,0.11,WeatherCatV1.10B1784,2013-03-03 04:27:00,
2013-03-02 20:32:00,39.6,38.3,30.24,SSW,207,2.0,2.0,95,0.00,,,0.11,WeatherCatV1.10B1784,2013-03-03 04:32:00,
2013-03-02 20:37:00,39.5,38.2,30.23,East,101,0.0,2.0,95,0.00,,,0.11,WeatherCatV1.10B1784,2013-03-03 04:37:00,
2013-03-02 20:42:00,39.4,38.1,30.23,SSE,152,0.0,2.0,95,0.00,,,0.11,WeatherCatV1.10B1784,2013-03-03 04:42:00,
2013-03-02 20:47:00,39.5,38.2,30.24,ENE,67,4.0,5.0,95,0.00,,,0.11,WeatherCatV1.10B1784,2013-03-03 04:47:00,
2013-03-02 20:52:00,39.5,38.2,30.24,SE,143,3.0,4.0,95,0.00,,,0.11,WeatherCatV1.10B1784,2013-03-03 04:52:00,
2013-03-02 20:57:00,39.5,38.2,30.24,ENE,62,0.0,2.0,95,0.00,,,0.11,WeatherCatV1.10B1784,2013-03-03 04:57:00,
2013-03-02 21:00:00,39.5,38.2,30.24,NNW,333,1.0,4.0,95,0.00,,,0.11,WeatherCatV1.10B1784,2013-03-03 05:00:00,
2013-03-02 21:05:00,39.5,38.2,30.24,NE,39,3.0,5.0,95,0.00,,,0.11,WeatherCatV1.10B1784,2013-03-03 05:05:00,
2013-03-02 21:10:00,39.5,38.2,30.24,ENE,61,1.0,2.0,95,0.00,,,0.11,WeatherCatV1.10B1784,2013-03-03 05:10:00,
2013-03-02 21:15:00,39.4,38.1,30.24,NNE,22,3.0,6.0,95,0.00,,,0.12,WeatherCatV1.10B1784,2013-03-03 05:15:00,
2013-03-02 21:20:00,39.3,38.0,30.24,NE,47,3.0,3.0,95,0.00,,,0.12,WeatherCatV1.10B1784,2013-03-03 05:20:00,
2013-03-02 21:25:00,39.2,37.9,30.24,NE,44,4.0,6.0,95,0.00,,,0.12,WeatherCatV1.10B1784,2013-03-03 05:25:00,
2013-03-02 21:30:00,39.2,37.9,30.24,NE,45,3.0,7.0,95,0.00,,,0.12,WeatherCatV1.10B1784,2013-03-03 05:30:00,
2013-03-02 21:35:00,39.3,38.0,30.24,NE,45,4.0,5.0,95,0.00,,,0.12,WeatherCatV1.10B1784,2013-03-03 05:35:00,
2013-03-02 21:40:00,39.3,38.0,30.24,NNE,22,2.0,3.0,95,0.00,,,0.12,WeatherCatV1.10B1784,2013-03-03 05:40:00,
2013-03-02 21:45:00,39.2,37.9,30.24,NE,49,1.0,3.0,95,0.00,,,0.12,WeatherCatV1.10B1784,2013-03-03 05:45:00,
2013-03-02 21:50:00,39.3,38.3,30.24,ENE,60,1.0,1.0,96,0.00,,,0.12,WeatherCatV1.10B1784,2013-03-03 05:50:00,
2013-03-02 21:55:00,39.2,37.9,30.24,NE,51,1.0,4.0,95,0.00,,,0.12,WeatherCatV1.10B1784,2013-03-03 05:55:00,
2013-03-02 22:00:00,39.2,37.9,30.24,NE,43,0.0,1.0,95,0.00,,,0.12,WeatherCatV1.10B1784,2013-03-03 06:00:00,
2013-03-02 22:05:00,39.3,38.0,30.24,NE,56,2.0,2.0,95,0.00,,,0.12,WeatherCatV1.10B1784,2013-03-03 06:05:00,
2013-03-02 22:10:00,39.3,38.3,30.24,ENE,63,3.0,3.0,96,0.00,,,0.12,WeatherCatV1.10B1784,2013-03-03 06:10:00,
2013-03-02 22:15:00,39.4,38.4,30.24,NE,56,4.0,4.0,96,0.00,,,0.12,WeatherCatV1.10B1784,2013-03-03 06:15:00,
2013-03-02 22:20:00,39.5,38.2,30.24,NE,46,1.0,2.0,95,0.00,,,0.12,WeatherCatV1.10B1784,2013-03-03 06:20:00,
2013-03-02 22:25:00,39.4,38.1,30.25,NE,44,3.0,5.0,95,0.00,,,0.12,WeatherCatV1.10B1784,2013-03-03 06:25:00,
2013-03-02 22:30:00,39.2,37.9,30.25,NE,39,2.0,5.0,95,0.00,,,0.12,WeatherCatV1.10B1784,2013-03-03 06:30:00,
2013-03-02 22:35:00,39.1,37.5,30.25,NNW,335,1.0,6.0,94,0.00,,,0.12,WeatherCatV1.10B1784,2013-03-03 06:35:00,
2013-03-02 22:40:00,39.0,37.4,30.25,NNE,27,4.0,4.0,94,0.00,,,0.12,WeatherCatV1.10B1784,2013-03-03 06:40:00,
2013-03-02 22:45:00,38.9,37.3,30.25,NE,53,2.0,7.0,94,0.00,,,0.12,WeatherCatV1.10B1784,2013-03-03 06:45:00,
2013-03-02 22:50:00,38.6,36.8,30.25,NNE,32,4.0,7.0,93,0.00,,,0.12,WeatherCatV1.10B1784,2013-03-03 06:50:00,
2013-03-02 22:55:00,38.3,36.7,30.25,North,350,3.0,6.0,94,0.00,,,0.12,WeatherCatV1.10B1784,2013-03-03 06:55:00,
2013-03-02 23:00:00,38.2,36.6,30.25,NNE,17,8.0,10.0,94,0.00,,,0.12,WeatherCatV1.10B1784,2013-03-03 07:00:00,
2013-03-02 23:05:00,37.9,36.3,30.25,NE,47,7.0,13.0,94,0.00,,,0.12,WeatherCatV1.10B1784,2013-03-03 07:05:00,
2013-03-02 23:10:00,37.8,36.2,30.25,NE,41,1.0,6.0,94,0.00,,,0.12,WeatherCatV1.10B1784,2013-03-03 07:10:00,
2013-03-02 23:15:00,37.6,35.8,30.25,East,85,2.0,7.0,93,0.00,,,0.12,WeatherCatV1.10B1784,2013-03-03 07:15:00,
2013-03-02 23:20:00,37.5,35.7,30.25,ENE,68,5.0,6.0,93,0.00,,,0.12,WeatherCatV1.10B1784,2013-03-03 07:20:00,
2013-03-02 23:25:00,37.5,35.9,30.25,East,79,4.0,7.0,94,0.00,,,0.12,WeatherCatV1.10B1784,2013-03-03 07:25:00,
2013-03-02 23:30:00,37.5,35.9,30.25,NE,43,6.0,8.0,94,0.00,,,0.12,WeatherCatV1.10B1784,2013-03-03 07:30:00,
2013-03-02 23:31:00,37.5,35.9,30.25,NNE,29,5.0,7.0,94,0.00,,,0.12,WeatherCatV1.10B1784,2013-03-03 07:31:00,
2013-03-02 23:36:00,37.4,35.8,30.25,ENE,64,2.0,2.0,94,0.00,,,0.12,WeatherCatV1.10B1784,2013-03-03 07:36:00,
2013-03-02 23:41:00,37.3,35.7,30.26,NE,44,2.0,2.0,94,0.00,,,0.12,WeatherCatV1.10B1784,2013-03-03 07:41:00,
2013-03-02 23:46:00,37.4,36.1,30.26,NE,39,4.0,4.0,95,0.00,,,0.12,WeatherCatV1.10B1784,2013-03-03 07:46:00,
2013-03-02 23:51:00,37.4,36.1,30.26,NNE,22,2.0,5.0,95,0.00,,,0.12,WeatherCatV1.10B1784,2013-03-03 07:51:00,
2013-03-02 23:56:00,37.3,35.7,30.26,NNE,30,3.0,6.0,94,0.00,,,0.12,WeatherCatV1.10B1784,2013-03-03 07:56:00,